Time;durP1;ratioP1;P1;durP2;ratioP2;P2;SDS_P1;SDS_P2;PMS_P1;PMS_P2;Temp;Humidity;BMP_temperature;BMP_pressure;BME280_temperature;BME280_humidity;BME280_pressure;Samples;Min_cycle;Max_cycle;Signal;HPM_P1;HPM_P2
2023/03/31 00:01:28;;;;;;;6.20;3.50;;;13.80;99.90;;;;;;4957697;28;20411;-70
2023/03/31 00:04:00;;;;;;;15.32;4.15;;;13.80;99.90;;;;;;4959205;28;20031;-70
2023/03/31 00:06:27;;;;;;;7.93;4.10;;;13.80;99.90;;;;;;4955437;29;20042;-70
2023/03/31 00:08:53;;;;;;;11.55;4.90;;;13.80;99.90;;;;;;4958921;28;20016;-70
2023/03/31 00:11:20;;;;;;;8.85;4.05;;;13.90;99.90;;;;;;4959044;28;20023;-70
2023/03/31 00:13:46;;;;;;;10.40;4.22;;;13.80;99.90;;;;;;4957415;28;20042;-70
2023/03/31 00:16:12;;;;;;;9.05;3.65;;;13.90;99.90;;;;;;4957461;28;20546;-70
2023/03/31 00:18:46;;;;;;;10.02;4.15;;;13.90;99.90;;;;;;4958542;28;20030;-71
2023/03/31 00:21:32;;;;;;;8.13;3.78;;;13.90;99.90;;;;;;4957096;29;20460;-70
2023/03/31 00:24:02;;;;;;;12.57;5.30;;;13.90;99.90;;;;;;4957741;29;20105;-70
2023/03/31 00:26:29;;;;;;;13.15;4.10;;;14.00;99.90;;;;;;4954888;29;20042;-70
2023/03/31 00:28:55;;;;;;;11.57;4.68;;;14.00;99.90;;;;;;4956374;29;20609;-70
2023/03/31 00:31:22;;;;;;;9.68;4.05;;;14.00;99.90;;;;;;4957856;28;20020;-70
2023/03/31 00:33:48;;;;;;;13.27;3.95;;;14.10;99.90;;;;;;4958270;28;20023;-70
2023/03/31 00:36:19;;;;;;;8.05;4.35;;;14.10;99.90;;;;;;4958697;28;20097;-70
2023/03/31 00:38:48;;;;;;;13.13;4.78;;;14.10;99.90;;;;;;4958648;29;20451;-69
2023/03/31 00:41:14;;;;;;;11.55;4.00;;;14.10;99.90;;;;;;4958356;28;20053;-70
2023/03/31 00:43:41;;;;;;;6.28;3.85;;;14.20;99.90;;;;;;4954707;28;20042;-71
2023/03/31 00:46:17;;;;;;;11.70;3.63;;;14.10;99.90;;;;;;4956999;28;20031;-70
2023/03/31 00:48:53;;;;;;;14.05;4.07;;;14.10;99.90;;;;;;4957047;28;20156;-70
2023/03/31 00:51:21;;;;;;;10.38;4.72;;;14.10;99.90;;;;;;4958271;28;20102;-70
2023/03/31 00:53:56;;;;;;;7.85;3.92;;;14.10;99.90;;;;;;4956944;28;20027;-70
2023/03/31 00:56:22;;;;;;;11.57;4.13;;;14.10;99.90;;;;;;4956892;28;20019;-71
2023/03/31 00:58:49;;;;;;;8.63;4.00;;;14.10;99.90;;;;;;4958388;29;20026;-70
2023/03/31 01:01:19;;;;;;;7.35;4.00;;;14.10;99.90;;;;;;4958087;28;20492;-70
2023/03/31 01:03:46;;;;;;;9.02;4.00;;;14.10;99.90;;;;;;4958545;28;20452;-70
2023/03/31 01:06:15;;;;;;;10.18;4.28;;;14.10;99.90;;;;;;4957857;28;20123;-70
2023/03/31 01:08:42;;;;;;;10.07;4.05;;;14.10;99.90;;;;;;4957017;28;20118;-70
2023/03/31 01:11:12;;;;;;;13.90;3.97;;;14.10;99.90;;;;;;4957890;28;20026;-70
2023/03/31 01:13:40;;;;;;;10.35;4.28;;;14.00;99.90;;;;;;4956619;28;20057;-71
2023/03/31 01:16:06;;;;;;;12.35;4.75;;;14.00;99.90;;;;;;4958129;28;20027;-71
2023/03/31 01:18:33;;;;;;;17.02;5.38;;;14.00;99.90;;;;;;4957907;29;20027;-70
2023/03/31 01:21:44;;;;;;;11.02;4.20;;;14.00;99.90;;;;;;4957649;28;20539;-71
2023/03/31 01:24:34;;;;;;;13.13;4.72;;;14.00;99.90;;;;;;4957754;28;20596;-71
2023/03/31 01:27:36;;;;;;;17.33;4.47;;;14.00;99.90;;;;;;4953228;28;20035;-70
2023/03/31 01:30:29;;;;;;;13.98;3.75;;;13.90;99.90;;;;;;4957901;28;20507;-70
2023/03/31 01:33:03;;;;;;;10.57;4.25;;;13.90;99.90;;;;;;4958130;29;20023;-70
2023/03/31 01:35:51;;;;;;;15.95;5.13;;;13.90;99.90;;;;;;4956966;28;20023;-71
2023/03/31 01:38:50;;;;;;;8.88;3.97;;;13.80;99.90;;;;;;4956322;28;20031;-71
2023/03/31 01:41:31;;;;;;;11.10;4.75;;;13.80;99.90;;;;;;4957174;28;20035;-70
2023/03/31 01:44:16;;;;;;;11.57;4.10;;;13.80;99.90;;;;;;4958357;28;20537;-70
2023/03/31 01:46:53;;;;;;;11.75;4.70;;;13.80;99.90;;;;;;4958233;28;20027;-71
2023/03/31 01:49:27;;;;;;;12.70;4.50;;;13.70;99.90;;;;;;4960113;28;20066;-70
2023/03/31 01:52:05;;;;;;;10.40;4.50;;;13.60;99.90;;;;;;4957449;28;20023;-71
2023/03/31 01:54:49;;;;;;;13.30;5.15;;;13.60;99.90;;;;;;4961243;28;20090;-71
2023/03/31 01:57:33;;;;;;;8.90;4.25;;;13.50;99.90;;;;;;4961092;28;20027;-71
2023/03/31 02:00:08;;;;;;;7.93;3.75;;;13.40;99.90;;;;;;4954926;28;20036;-71
2023/03/31 02:02:47;;;;;;;8.93;4.20;;;13.30;99.90;;;;;;4961023;28;20480;-71
2023/03/31 02:05:19;;;;;;;8.38;3.90;;;13.20;99.90;;;;;;4960970;28;20027;-71
2023/03/31 02:07:56;;;;;;;15.60;4.15;;;13.10;99.90;;;;;;4960725;28;20037;-71
2023/03/31 02:10:25;;;;;;;12.80;5.00;;;13.10;99.90;;;;;;4960279;29;20015;-70
2023/03/31 02:12:52;;;;;;;5.43;4.18;;;13.00;99.90;;;;;;4960814;29;20472;-70
2023/03/31 02:15:25;;;;;;;11.18;4.65;;;13.00;99.90;;;;;;4960778;29;20392;-70
2023/03/31 02:17:55;;;;;;;13.35;4.55;;;13.00;99.90;;;;;;4960012;28;20031;-70
2023/03/31 02:20:22;;;;;;;16.63;5.28;;;13.00;99.90;;;;;;4950950;29;20043;-70
2023/03/31 02:22:54;;;;;;;12.70;5.45;;;12.90;99.90;;;;;;4959133;28;20058;-71
2023/03/31 02:25:27;;;;;;;13.68;4.60;;;12.80;99.90;;;;;;4960065;28;20050;-71
2023/03/31 02:27:56;;;;;;;14.93;4.75;;;13.00;99.90;;;;;;4960409;28;20035;-70
2023/03/31 02:30:27;;;;;;;15.60;5.15;;;13.10;99.90;;;;;;4959498;28;20026;-70
2023/03/31 02:32:53;;;;;;;10.07;4.40;;;13.10;99.90;;;;;;4960621;29;20020;-70
2023/03/31 02:35:21;;;;;;;11.48;4.85;;;13.10;99.90;;;;;;4959165;29;20019;-70
2023/03/31 02:37:51;;;;;;;11.65;5.60;;;13.00;99.90;;;;;;4960459;28;20023;-70
2023/03/31 02:40:21;;;;;;;8.50;4.95;;;12.90;99.90;;;;;;4959726;28;20545;-71
2023/03/31 02:42:48;;;;;;;13.55;4.97;;;12.90;99.90;;;;;;4960466;28;20042;-71
2023/03/31 02:45:52;;;;;;;19.23;5.38;;;12.90;99.90;;;;;;4959079;29;20095;-70
2023/03/31 02:48:28;;;;;;;10.85;4.70;;;12.80;99.90;;;;;;4926838;29;20455;-70
2023/03/31 02:51:12;;;;;;;12.27;4.43;;;12.70;99.90;;;;;;4929213;29;20036;-71
2023/03/31 02:54:23;;;;;;;17.58;5.07;;;12.60;99.90;;;;;;4939203;28;20039;-70
2023/03/31 02:57:10;;;;;;;15.48;4.95;;;12.50;99.90;;;;;;4954875;28;20031;-70
2023/03/31 03:00:00;;;;;;;5.68;3.85;;;12.40;99.90;;;;;;4959643;29;20035;-70
2023/03/31 03:02:58;;;;;;;11.02;4.93;;;12.30;99.90;;;;;;4950056;29;20499;-71
2023/03/31 03:05:57;;;;;;;9.68;4.10;;;12.20;99.90;;;;;;4959941;29;20020;-71
2023/03/31 03:08:44;;;;;;;12.68;4.82;;;12.10;99.90;;;;;;4958822;29;20128;-70
2023/03/31 03:11:21;;;;;;;13.18;5.70;;;12.10;99.90;;;;;;4958546;28;20027;-70
2023/03/31 03:13:51;;;;;;;12.80;4.18;;;12.00;99.90;;;;;;4960291;28;20015;-70
2023/03/31 03:16:29;;;;;;;10.73;4.67;;;12.00;99.90;;;;;;4958373;28;20392;-71
2023/03/31 03:19:00;;;;;;;11.90;5.07;;;12.00;99.90;;;;;;4960120;28;20082;-71
2023/03/31 03:21:27;;;;;;;11.43;4.65;;;12.00;99.90;;;;;;4972533;28;20077;-71
2023/03/31 03:23:53;;;;;;;10.10;4.95;;;12.00;99.90;;;;;;4959952;28;20094;-71
2023/03/31 03:26:20;;;;;;;11.63;5.97;;;12.00;99.90;;;;;;4959367;28;20102;-70
2023/03/31 03:28:47;;;;;;;8.48;4.65;;;11.90;99.90;;;;;;4958658;28;20031;-71
2023/03/31 03:31:14;;;;;;;12.55;5.00;;;11.90;99.90;;;;;;4959853;28;20534;-70
2023/03/31 03:33:40;;;;;;;12.18;5.13;;;11.90;99.90;;;;;;4959636;28;20034;-71
2023/03/31 03:36:06;;;;;;;10.68;5.43;;;11.90;99.90;;;;;;4959713;28;20011;-71
2023/03/31 03:38:32;;;;;;;16.75;5.03;;;11.90;99.90;;;;;;4958583;29;20055;-70
2023/03/31 03:40:58;;;;;;;12.75;4.95;;;11.90;99.90;;;;;;4959705;28;20028;-70
2023/03/31 03:43:23;;;;;;;8.98;5.20;;;11.90;99.90;;;;;;4959578;29;20035;-71
2023/03/31 03:45:51;;;;;;;9.57;4.60;;;11.90;99.90;;;;;;4959476;28;20023;-70
2023/03/31 03:48:17;;;;;;;10.40;4.93;;;11.90;99.90;;;;;;4957600;29;20046;-70
2023/03/31 03:50:45;;;;;;;10.80;4.95;;;11.80;99.90;;;;;;4959144;28;20019;-70
2023/03/31 03:53:12;;;;;;;19.02;5.05;;;11.80;99.90;;;;;;4959152;28;20051;-70
2023/03/31 03:55:37;;;;;;;10.82;4.95;;;11.80;99.90;;;;;;4958002;28;20487;-70
2023/03/31 03:58:04;;;;;;;15.48;5.13;;;11.80;99.90;;;;;;4957794;28;20314;-70
2023/03/31 04:00:30;;;;;;;9.38;4.75;;;11.80;99.90;;;;;;4957816;28;20391;-70
2023/03/31 04:02:56;;;;;;;13.48;5.28;;;11.70;99.90;;;;;;4959126;28;20402;-70
2023/03/31 04:05:22;;;;;;;8.50;4.35;;;11.70;99.90;;;;;;4958040;28;20106;-71
2023/03/31 04:07:47;;;;;;;14.07;5.25;;;11.60;99.90;;;;;;4958457;29;20031;-70
2023/03/31 04:10:13;;;;;;;11.98;5.43;;;11.60;99.90;;;;;;4958505;28;20019;-70
2023/03/31 04:12:39;;;;;;;9.90;5.32;;;11.50;99.90;;;;;;4959031;28;20031;-70
2023/03/31 04:15:06;;;;;;;13.75;5.00;;;11.50;99.90;;;;;;4959220;28;20058;-70
2023/03/31 04:17:33;;;;;;;9.75;5.00;;;11.30;99.90;;;;;;4957714;28;20040;-70
2023/03/31 04:20:04;;;;;;;11.65;5.13;;;11.40;99.90;;;;;;4957043;29;20058;-70
2023/03/31 04:22:34;;;;;;;;;;;11.30;99.90;;;;;;4957507;29;20122;-70
2023/03/31 04:25:04;;;;;;;23.33;11.00;;;11.30;99.90;;;;;;4957751;28;20326;-71
2023/03/31 04:27:32;;;;;;;15.07;5.67;;;11.20;99.90;;;;;;4958764;28;20557;-70
2023/03/31 04:29:58;;;;;;;15.52;5.78;;;11.20;99.90;;;;;;4959186;28;20259;-71
2023/03/31 04:32:23;;;;;;;15.60;6.00;;;11.40;99.90;;;;;;4958937;29;20034;-70
2023/03/31 04:34:49;;;;;;;15.80;8.38;;;11.40;99.90;;;;;;4958587;29;20035;-70
2023/03/31 04:37:16;;;;;;;14.95;6.70;;;11.40;99.90;;;;;;4958534;28;20038;-70
2023/03/31 04:39:45;;;;;;;15.48;7.55;;;11.40;99.90;;;;;;4959000;29;20027;-71
2023/03/31 04:42:11;;;;;;;13.52;6.22;;;11.50;99.90;;;;;;4958694;28;20069;-71
2023/03/31 04:44:36;;;;;;;18.60;6.13;;;11.50;99.90;;;;;;4957744;28;20055;-70
2023/03/31 04:47:02;;;;;;;10.07;5.38;;;11.60;99.90;;;;;;4957323;28;20105;-71
2023/03/31 04:49:28;;;;;;;15.20;7.03;;;11.70;99.90;;;;;;4957539;29;20546;-70
2023/03/31 04:51:54;;;;;;;16.92;5.50;;;11.90;99.90;;;;;;4958669;29;20090;-70
2023/03/31 04:54:19;;;;;;;22.33;6.85;;;12.00;99.90;;;;;;4958296;28;20026;-70
2023/03/31 04:56:45;;;;;;;11.25;4.60;;;12.10;99.90;;;;;;4956204;28;20027;-70
2023/03/31 04:59:11;;;;;;;14.60;6.00;;;12.10;99.90;;;;;;4958604;28;20032;-71
2023/03/31 05:01:37;;;;;;;19.92;5.80;;;12.30;99.90;;;;;;4957552;28;20038;-71
2023/03/31 05:04:03;;;;;;;12.20;5.18;;;12.40;99.90;;;;;;4957832;28;20239;-70
2023/03/31 05:06:30;;;;;;;10.02;4.63;;;12.50;99.90;;;;;;4957912;28;20023;-70
2023/03/31 05:08:55;;;;;;;17.15;5.68;;;12.60;99.90;;;;;;4958565;29;20029;-70
2023/03/31 05:11:21;;;;;;;10.57;5.18;;;12.60;99.90;;;;;;4958036;28;20086;-70
2023/03/31 05:13:47;;;;;;;13.10;4.80;;;12.70;99.90;;;;;;4956675;28;20027;-70
2023/03/31 05:16:13;;;;;;;15.13;5.50;;;12.70;99.90;;;;;;4958050;28;20091;-70
2023/03/31 05:18:40;;;;;;;11.25;4.60;;;12.70;99.90;;;;;;4960358;28;20070;-70
2023/03/31 05:21:08;;;;;;;16.73;6.60;;;12.70;99.90;;;;;;4961644;28;20415;-70
2023/03/31 05:23:34;;;;;;;12.75;5.45;;;12.70;99.90;;;;;;4962378;29;20109;-70
2023/03/31 05:26:00;;;;;;;15.40;5.20;;;12.70;99.90;;;;;;4960348;28;20062;-70
2023/03/31 05:28:25;;;;;;;12.50;5.63;;;12.80;99.90;;;;;;4960427;29;20114;-70
2023/03/31 05:30:51;;;;;;;15.52;6.18;;;12.80;99.90;;;;;;4961425;28;20027;-70
2023/03/31 05:33:16;;;;;;;12.93;5.47;;;12.90;99.90;;;;;;4961755;28;20024;-70
2023/03/31 05:35:43;;;;;;;14.40;5.50;;;12.90;99.90;;;;;;4961656;28;20027;-70
2023/03/31 05:38:09;;;;;;;13.45;4.93;;;12.90;99.90;;;;;;4961763;29;20023;-70
2023/03/31 05:40:35;;;;;;;10.50;5.50;;;12.90;99.90;;;;;;4961614;28;20046;-70
2023/03/31 05:43:00;;;;;;;16.77;6.90;;;12.90;99.90;;;;;;4961643;28;20103;-71
2023/03/31 05:45:26;;;;;;;12.07;5.63;;;13.00;99.90;;;;;;4961430;28;20039;-70
2023/03/31 05:47:51;;;;;;;13.50;5.30;;;13.00;99.90;;;;;;4961572;29;20027;-70
2023/03/31 05:50:17;;;;;;;11.82;5.95;;;13.10;99.90;;;;;;4959970;28;20456;-70
2023/03/31 05:52:43;;;;;;;12.65;4.82;;;13.00;99.90;;;;;;4961382;28;20484;-70
2023/03/31 05:55:09;;;;;;;12.75;5.82;;;13.10;99.90;;;;;;4959869;29;20066;-72
2023/03/31 05:57:34;;;;;;;12.13;4.70;;;13.20;99.90;;;;;;4960015;28;20031;-72
2023/03/31 06:00:01;;;;;;;14.82;5.38;;;13.20;99.90;;;;;;4961081;28;20027;-72
2023/03/31 06:02:26;;;;;;;11.20;4.93;;;13.20;99.90;;;;;;4961557;28;20028;-72
2023/03/31 06:04:52;;;;;;;18.98;6.78;;;13.30;99.90;;;;;;4961023;28;20636;-72
2023/03/31 06:07:18;;;;;;;12.75;5.30;;;13.30;99.90;;;;;;4960434;28;20027;-73
2023/03/31 06:09:44;;;;;;;15.32;5.05;;;13.30;99.90;;;;;;4961147;29;20050;-71
2023/03/31 06:12:10;;;;;;;13.73;5.43;;;13.40;99.90;;;;;;4961487;28;20087;-70
2023/03/31 06:14:36;;;;;;;15.20;5.38;;;13.40;99.90;;;;;;4961136;29;20023;-70
2023/03/31 06:17:01;;;;;;;13.32;4.93;;;13.40;99.90;;;;;;4961030;28;20024;-70
2023/03/31 06:19:27;;;;;;;12.55;5.32;;;13.40;99.90;;;;;;4960820;28;20495;-72
2023/03/31 06:21:53;;;;;;;16.05;5.78;;;13.40;99.90;;;;;;4960855;29;20019;-72
2023/03/31 06:24:19;;;;;;;13.55;5.85;;;13.50;99.90;;;;;;4960952;29;20023;-70
2023/03/31 06:26:44;;;;;;;15.35;6.00;;;13.50;99.90;;;;;;4960689;28;20135;-70
2023/03/31 06:29:11;;;;;;;13.30;5.97;;;13.50;99.90;;;;;;4959832;28;20050;-70
2023/03/31 06:31:37;;;;;;;24.00;6.13;;;13.50;99.90;;;;;;4960821;28;20026;-70
2023/03/31 06:34:02;;;;;;;8.13;4.47;;;13.50;99.90;;;;;;4960595;28;20023;-70
2023/03/31 06:36:28;;;;;;;24.90;5.40;;;13.50;99.90;;;;;;4960437;28;20103;-70
2023/03/31 06:38:54;;;;;;;17.58;5.93;;;13.60;99.90;;;;;;4960496;28;20031;-70
2023/03/31 06:41:21;;;;;;;12.50;5.90;;;13.70;99.90;;;;;;4960641;28;20074;-70
2023/03/31 06:43:47;;;;;;;19.95;5.78;;;13.70;99.90;;;;;;4958462;29;20050;-70
2023/03/31 06:46:12;;;;;;;20.77;5.50;;;13.70;99.90;;;;;;4960340;28;20023;-70
2023/03/31 06:48:38;;;;;;;19.00;5.45;;;13.70;99.90;;;;;;4960406;28;20480;-70
2023/03/31 06:51:05;;;;;;;14.35;5.38;;;13.70;99.90;;;;;;4959967;28;20082;-70
2023/03/31 06:53:31;;;;;;;16.35;5.63;;;13.80;99.90;;;;;;4960284;28;20030;-70
2023/03/31 06:55:57;;;;;;;15.82;5.90;;;13.80;99.90;;;;;;4960429;28;20015;-70
2023/03/31 06:58:23;;;;;;;12.15;4.95;;;13.80;99.90;;;;;;4960323;28;20341;-70
2023/03/31 07:00:49;;;;;;;25.88;7.90;;;13.80;99.90;;;;;;4960012;28;20027;-71
2023/03/31 07:03:21;;;;;;;26.08;6.85;;;13.90;99.90;;;;;;4958761;28;20035;-71
2023/03/31 07:05:54;;;;;;;34.03;7.38;;;14.00;99.90;;;;;;4959797;28;20102;-71
2023/03/31 07:08:21;;;;;;;26.80;7.07;;;14.20;99.90;;;;;;4959721;28;20023;-72
2023/03/31 07:10:49;;;;;;;19.88;7.47;;;14.20;99.90;;;;;;4958804;28;20133;-71
2023/03/31 07:13:16;;;;;;;19.00;6.85;;;14.30;99.90;;;;;;4959892;28;20030;-71
2023/03/31 07:15:41;;;;;;;20.85;6.38;;;14.30;99.90;;;;;;4959728;28;20476;-71
2023/03/31 07:18:07;;;;;;;35.70;7.38;;;14.30;99.90;;;;;;4959720;28;20166;-70
2023/03/31 07:20:33;;;;;;;39.35;9.80;;;14.40;99.90;;;;;;4959424;28;20047;-71
2023/03/31 07:23:01;;;;;;;38.25;8.00;;;14.40;99.90;;;;;;4959455;28;20027;-72
2023/03/31 07:25:27;;;;;;;27.00;8.80;;;14.40;99.90;;;;;;4958639;29;20030;-72
2023/03/31 07:27:53;;;;;;;33.58;8.35;;;14.50;99.90;;;;;;4945933;28;20024;-72
2023/03/31 07:30:19;;;;;;;37.40;9.50;;;14.50;99.90;;;;;;4964871;28;20027;-71
2023/03/31 07:32:47;;;;;;;27.45;7.05;;;14.50;99.90;;;;;;4968419;28;20046;-71
2023/03/31 07:35:13;;;;;;;34.03;8.90;;;14.50;99.90;;;;;;4970253;28;20027;-71
2023/03/31 07:37:42;;;;;;;34.60;8.57;;;14.60;99.90;;;;;;4960883;28;20089;-71
2023/03/31 07:40:14;;;;;;;28.75;7.72;;;14.70;99.90;;;;;;4974424;28;20432;-71
2023/03/31 07:42:40;;;;;;;33.20;8.23;;;14.80;99.90;;;;;;4972613;28;20503;-71
2023/03/31 07:45:07;;;;;;;29.20;7.93;;;15.10;99.90;;;;;;4970407;28;20023;-71
2023/03/31 07:47:33;;;;;;;29.95;7.32;;;15.30;99.90;;;;;;4961942;28;20103;-72
2023/03/31 07:49:58;;;;;;;30.45;7.50;;;15.40;99.90;;;;;;4970826;28;20027;-71
2023/03/31 07:52:24;;;;;;;32.30;7.60;;;15.40;99.90;;;;;;4973563;28;20089;-71
2023/03/31 07:54:50;;;;;;;29.73;6.68;;;15.50;99.90;;;;;;4970249;28;20023;-72
2023/03/31 07:57:18;;;;;;;31.67;7.32;;;15.50;99.90;;;;;;4970798;28;20158;-72
2023/03/31 07:59:45;;;;;;;32.60;7.35;;;15.60;99.90;;;;;;4974480;28;20023;-72
2023/03/31 08:02:18;;;;;;;33.50;8.63;;;15.60;99.90;;;;;;4970881;28;20097;-72
2023/03/31 08:04:45;;;;;;;27.90;7.00;;;15.70;99.90;;;;;;4969625;28;20023;-72
2023/03/31 08:07:13;;;;;;;21.05;6.45;;;15.70;99.90;;;;;;4966619;28;20031;-72
2023/03/31 08:09:40;;;;;;;36.03;8.05;;;15.60;99.90;;;;;;4959117;29;20043;-72
2023/03/31 08:12:05;;;;;;;23.45;7.82;;;15.50;99.90;;;;;;4958877;28;20027;-71
2023/03/31 08:14:32;;;;;;;24.85;7.53;;;15.50;99.90;;;;;;4958332;29;20037;-72
2023/03/31 08:16:59;;;;;;;28.30;8.00;;;15.40;99.90;;;;;;4957338;28;20062;-72
2023/03/31 08:19:27;;;;;;;25.75;7.07;;;15.40;99.90;;;;;;4957654;28;20023;-71
2023/03/31 08:21:53;;;;;;;25.75;7.13;;;15.30;99.90;;;;;;4956493;28;20035;-72
2023/03/31 08:24:19;;;;;;;30.70;8.68;;;15.20;99.90;;;;;;4957817;29;20105;-72
2023/03/31 08:26:45;;;;;;;26.38;7.95;;;15.20;99.90;;;;;;4953287;28;20106;-72
2023/03/31 08:29:11;;;;;;;27.73;6.55;;;15.10;99.90;;;;;;4955110;28;20557;-72
2023/03/31 08:31:37;;;;;;;31.38;9.43;;;15.00;99.90;;;;;;4959087;28;20023;-72
2023/03/31 08:34:03;;;;;;;29.33;9.38;;;14.90;99.90;;;;;;4958603;28;20098;-72
2023/03/31 08:36:29;;;;;;;44.40;9.95;;;14.70;99.90;;;;;;4958910;28;20058;-72
2023/03/31 08:38:55;;;;;;;39.50;9.82;;;14.70;99.90;;;;;;4958562;28;20106;-71
2023/03/31 08:41:37;;;;;;;38.60;7.63;;;14.70;99.90;;;;;;4957614;28;20023;-72
2023/03/31 08:44:29;;;;;;;40.35;9.15;;;14.70;99.90;;;;;;4958691;29;20030;-72
2023/03/31 08:46:57;;;;;;;39.75;10.25;;;14.70;99.90;;;;;;4957967;28;20039;-72
2023/03/31 08:49:25;;;;;;;33.58;9.23;;;14.70;99.90;;;;;;4958790;29;20024;-72
2023/03/31 08:52:22;;;;;;;33.53;8.20;;;14.70;99.90;;;;;;4954191;28;20019;-71
2023/03/31 08:54:56;;;;;;;41.28;10.13;;;14.60;99.90;;;;;;4937166;28;20408;-72
2023/03/31 08:57:26;;;;;;;40.67;9.60;;;14.60;99.90;;;;;;4958974;28;20111;-72
2023/03/31 08:59:57;;;;;;;37.35;9.85;;;14.60;99.90;;;;;;4958100;28;20515;-72
2023/03/31 09:02:33;;;;;;;35.85;9.90;;;14.60;99.90;;;;;;4957488;28;20055;-72
2023/03/31 09:05:05;;;;;;;42.67;9.45;;;14.70;99.90;;;;;;4957522;28;20399;-71
2023/03/31 09:07:54;;;;;;;35.13;9.85;;;14.70;99.90;;;;;;4956983;28;20027;-71
2023/03/31 09:10:27;;;;;;;37.60;9.65;;;14.70;99.90;;;;;;4958794;29;20023;-72
2023/03/31 09:13:02;;;;;;;24.58;7.97;;;14.70;99.90;;;;;;4957103;28;20031;-71
2023/03/31 09:15:31;;;;;;;51.55;13.80;;;14.70;99.90;;;;;;4957550;28;20074;-72
2023/03/31 09:18:05;;;;;;;39.47;8.55;;;14.70;99.90;;;;;;4956951;29;20027;-71
2023/03/31 09:20:35;;;;;;;40.47;10.32;;;14.80;99.90;;;;;;4956922;28;20051;-71
2023/03/31 09:23:10;;;;;;;39.97;8.32;;;14.80;99.90;;;;;;4958352;28;20019;-71
2023/03/31 09:25:40;;;;;;;34.60;9.13;;;14.90;99.90;;;;;;4958251;28;20484;-71
2023/03/31 09:28:17;;;;;;;47.50;9.13;;;14.80;99.90;;;;;;4956979;28;20023;-71
2023/03/31 09:30:43;;;;;;;54.55;12.55;;;14.80;99.90;;;;;;4958245;28;20098;-72
2023/03/31 09:33:30;;;;;;;41.95;10.63;;;14.80;99.90;;;;;;4958308;28;20047;-71
2023/03/31 09:36:00;;;;;;;36.45;9.38;;;14.80;99.90;;;;;;4957904;28;20463;-72
2023/03/31 09:38:30;;;;;;;36.65;9.40;;;14.90;99.90;;;;;;4958717;28;20057;-72
2023/03/31 09:41:04;;;;;;;45.13;11.45;;;14.90;99.90;;;;;;4957997;28;20063;-72
2023/03/31 09:43:34;;;;;;;41.10;9.77;;;14.90;99.90;;;;;;4958185;28;20028;-72
2023/03/31 09:46:00;;;;;;;44.03;11.83;;;14.90;99.90;;;;;;4956871;29;20067;-72
2023/03/31 09:48:29;;;;;;;56.10;12.20;;;14.80;99.90;;;;;;4958008;28;20286;-72
2023/03/31 09:50:59;;;;;;;40.40;9.88;;;14.80;99.90;;;;;;4957950;29;20074;-73
2023/03/31 09:53:47;;;;;;;40.83;9.98;;;14.80;99.90;;;;;;4956183;28;20116;-72
2023/03/31 09:56:30;;;;;;;41.17;9.68;;;14.80;99.90;;;;;;4966119;28;20027;-72
2023/03/31 09:59:01;;;;;;;26.88;9.32;;;14.70;99.90;;;;;;4958293;28;20034;-71
2023/03/31 10:01:28;;;;;;;50.50;11.05;;;14.70;99.90;;;;;;4956666;29;20019;-71
2023/03/31 10:03:55;;;;;;;54.95;10.60;;;14.60;99.90;;;;;;4958840;28;20019;-72
2023/03/31 10:06:23;;;;;;;43.92;9.60;;;14.60;99.90;;;;;;4961252;28;20078;-72
2023/03/31 10:08:58;;;;;;;55.60;11.05;;;14.70;99.90;;;;;;4961323;28;20510;-71
2023/03/31 10:11:26;;;;;;;36.30;9.40;;;14.90;99.90;;;;;;4961408;29;20024;-72
2023/03/31 10:14:33;;;;;;;30.38;7.97;;;15.10;99.90;;;;;;4961335;28;20024;-72
2023/03/31 10:17:03;;;;;;;38.17;8.98;;;15.40;99.90;;;;;;4936565;28;20508;-71
2023/03/31 10:19:32;;;;;;;34.63;10.52;;;15.60;99.90;;;;;;4960965;29;20043;-72
2023/03/31 10:22:28;;;;;;;44.97;10.00;;;15.80;99.90;;;;;;4959232;28;20039;-72
2023/03/31 10:25:09;;;;;;;27.27;9.35;;;16.00;99.90;;;;;;4959591;29;20045;-71
2023/03/31 10:27:39;;;;;;;34.78;9.15;;;15.90;99.90;;;;;;4960969;29;20022;-72
2023/03/31 10:30:10;;;;;;;36.33;9.60;;;16.00;99.90;;;;;;4961223;29;20034;-72
2023/03/31 10:32:41;;;;;;;37.83;10.10;;;16.00;99.90;;;;;;4961069;28;20024;-72
2023/03/31 10:35:07;;;;;;;36.25;10.20;;;16.10;99.90;;;;;;4960999;28;20027;-72
2023/03/31 10:37:35;;;;;;;48.40;9.45;;;16.20;99.90;;;;;;4959651;28;20034;-71
2023/03/31 10:40:21;;;;;;;34.47;11.05;;;16.30;99.90;;;;;;4960892;28;20027;-72
2023/03/31 10:42:57;;;;;;;38.92;8.75;;;16.40;99.90;;;;;;4953717;28;20059;-71
2023/03/31 10:45:25;;;;;;;34.85;8.88;;;16.40;99.90;;;;;;4960640;28;20621;-71
2023/03/31 10:47:54;;;;;;;34.33;10.35;;;16.30;99.90;;;;;;4957185;28;20047;-72
2023/03/31 10:50:27;;;;;;;28.00;7.97;;;16.00;99.90;;;;;;4959105;29;20023;-72
2023/03/31 10:53:04;;;;;;;30.83;8.38;;;16.10;99.90;;;;;;4959068;28;20038;-72
2023/03/31 10:55:39;;;;;;;48.65;10.20;;;16.30;99.90;;;;;;4960610;28;20053;-73
2023/03/31 10:58:31;;;;;;;37.40;9.43;;;16.50;99.90;;;;;;4960351;28;20027;-72
2023/03/31 11:01:06;;;;;;;27.30;7.90;;;16.60;99.90;;;;;;4952032;28;20039;-71
2023/03/31 11:03:40;;;;;;;29.63;7.97;;;16.90;99.90;;;;;;4960139;28;20033;-72
2023/03/31 11:06:19;;;;;;;31.80;8.82;;;16.90;99.90;;;;;;4960236;29;20110;-72
2023/03/31 11:09:10;;;;;;;55.40;9.63;;;17.10;99.90;;;;;;4949763;28;20027;-71
2023/03/31 11:12:07;;;;;;;33.22;9.65;;;17.10;99.90;;;;;;4954597;28;20035;-70
2023/03/31 11:14:45;;;;;;;39.90;10.43;;;16.60;99.90;;;;;;4949422;28;20074;-71
2023/03/31 11:17:50;;;;;;;24.75;7.65;;;16.40;99.90;;;;;;4966242;28;20122;-72
2023/03/31 11:20:20;;;;;;;40.88;9.65;;;16.20;99.90;;;;;;4969351;28;20046;-71
2023/03/31 11:22:55;;;;;;;31.90;9.45;;;16.30;99.90;;;;;;4967762;28;20036;-71
2023/03/31 11:25:21;;;;;;;30.55;10.30;;;16.50;99.90;;;;;;4968550;28;20033;-72
2023/03/31 11:28:05;;;;;;;37.25;10.25;;;16.70;99.90;;;;;;4966490;28;20114;-72
2023/03/31 11:30:41;;;;;;;37.97;10.50;;;16.80;99.90;;;;;;4968882;28;20030;-71
2023/03/31 11:34:03;;;;;;;36.10;10.95;;;16.90;99.90;;;;;;4963578;28;20110;-72
2023/03/31 11:36:40;;;;;;;33.80;10.77;;;16.80;99.90;;;;;;4922628;28;20044;-72
2023/03/31 11:39:14;;;;;;;28.23;11.77;;;16.90;99.90;;;;;;4969571;28;20387;-72
2023/03/31 11:41:50;;;;;;;36.55;12.57;;;16.70;99.90;;;;;;4969521;28;20543;-73
2023/03/31 11:44:18;;;;;;;30.85;12.45;;;16.70;99.90;;;;;;4963966;28;20440;-73
2023/03/31 11:46:55;;;;;;;44.70;13.50;;;16.80;99.90;;;;;;4972243;28;20027;-72
2023/03/31 11:49:37;;;;;;;34.72;13.02;;;16.60;99.90;;;;;;4965365;28;20438;-73
2023/03/31 11:52:15;;;;;;;35.80;12.70;;;16.60;99.90;;;;;;4972391;28;20578;-72
2023/03/31 11:54:44;;;;;;;35.65;12.20;;;16.60;99.90;;;;;;4967934;28;20075;-71
2023/03/31 11:57:20;;;;;;;38.33;13.30;;;16.80;99.90;;;;;;4964578;28;20070;-72
2023/03/31 11:59:52;;;;;;;39.28;11.98;;;16.90;99.90;;;;;;4972243;28;20070;-72
2023/03/31 12:02:37;;;;;;;35.17;10.70;;;16.90;99.90;;;;;;4973560;28;20030;-72
2023/03/31 12:05:05;;;;;;;28.65;10.50;;;17.00;99.90;;;;;;4960118;28;20023;-71
2023/03/31 12:07:52;;;;;;;38.47;12.43;;;17.10;99.90;;;;;;4957724;28;20098;-71
2023/03/31 12:10:30;;;;;;;38.83;10.45;;;17.20;99.90;;;;;;4959328;28;20032;-72
2023/03/31 12:13:27;;;;;;;28.75;9.18;;;17.40;99.90;;;;;;4958981;28;20055;-71
2023/03/31 12:16:20;;;;;;;33.45;9.50;;;17.50;99.90;;;;;;4953601;29;20031;-71
2023/03/31 12:19:05;;;;;;;28.90;8.93;;;17.50;99.90;;;;;;4958795;28;20035;-71
2023/03/31 12:21:32;;;;;;;27.50;11.18;;;17.30;99.90;;;;;;4958555;28;20071;-72
2023/03/31 12:23:58;;;;;;;26.80;8.85;;;17.20;99.90;;;;;;4958444;28;20039;-72
2023/03/31 12:26:30;;;;;;;25.23;9.35;;;17.20;99.90;;;;;;4959025;28;20019;-72
2023/03/31 12:29:04;;;;;;;26.05;9.40;;;17.20;99.90;;;;;;4957969;28;20059;-72
2023/03/31 12:31:32;;;;;;;25.35;8.77;;;17.20;99.90;;;;;;4958152;29;20026;-72
2023/03/31 12:33:59;;;;;;;26.80;8.35;;;17.30;99.90;;;;;;4958376;28;20091;-71
2023/03/31 12:36:40;;;;;;;26.63;8.30;;;17.20;99.90;;;;;;4958715;28;20487;-71
2023/03/31 12:39:20;;;;;;;27.90;9.18;;;17.50;99.90;;;;;;4958691;28;20023;-72
2023/03/31 12:42:03;;;;;;;18.73;8.18;;;17.60;99.90;;;;;;4957480;29;20499;-70
2023/03/31 12:44:55;;;;;;;33.60;8.43;;;17.30;99.90;;;;;;4957669;29;20388;-71
2023/03/31 12:47:32;;;;;;;24.45;7.32;;;17.10;99.90;;;;;;4957267;29;20034;-71
2023/03/31 12:50:12;;;;;;;37.72;10.52;;;17.20;99.90;;;;;;4957289;28;20082;-73
2023/03/31 12:52:45;;;;;;;;;;;17.20;99.90;;;;;;4959089;29;20098;-72
2023/03/31 12:55:33;;;;;;;17.75;5.97;;;17.30;99.90;;;;;;4957309;28;19906;-73
2023/03/31 12:58:23;;;;;;;24.70;8.57;;;17.00;99.90;;;;;;4957317;29;20023;-73
2023/03/31 13:01:05;;;;;;;30.33;9.52;;;16.60;99.90;;;;;;4948812;29;20101;-73
2023/03/31 13:03:34;;;;;;;23.38;8.25;;;16.60;99.90;;;;;;4958319;28;20027;-72